sensor_id;sensor_type;location;lat;lon;timestamp;P1;durP1;ratioP1;P2;durP2;ratioP2
22186;SDS011;11259;52.146;12.844;2023-02-15T00:01:04;4.80;;;3.85;;
22186;SDS011;11259;52.146;12.844;2023-02-15T00:03:30;5.03;;;3.13;;
22186;SDS011;11259;52.146;12.844;2023-02-15T00:05:56;4.72;;;3.40;;
22186;SDS011;11259;52.146;12.844;2023-02-15T00:08:21;3.53;;;3.22;;
22186;SDS011;11259;52.146;12.844;2023-02-15T00:10:46;3.38;;;2.25;;
22186;SDS011;11259;52.146;12.844;2023-02-15T00:13:12;6.30;;;2.45;;
22186;SDS011;11259;52.146;12.844;2023-02-15T00:15:37;3.22;;;2.95;;
22186;SDS011;11259;52.146;12.844;2023-02-15T00:18:04;2.75;;;2.08;;
22186;SDS011;11259;52.146;12.844;2023-02-15T00:20:29;6.72;;;2.65;;
22186;SDS011;11259;52.146;12.844;2023-02-15T00:22:55;2.60;;;2.05;;
22186;SDS011;11259;52.146;12.844;2023-02-15T00:25:20;4.50;;;2.35;;
22186;SDS011;11259;52.146;12.844;2023-02-15T00:27:45;4.70;;;2.08;;
22186;SDS011;11259;52.146;12.844;2023-02-15T00:30:11;2.92;;;2.15;;
22186;SDS011;11259;52.146;12.844;2023-02-15T00:32:37;3.63;;;3.28;;
22186;SDS011;11259;52.146;12.844;2023-02-15T00:35:04;2.60;;;2.25;;
22186;SDS011;11259;52.146;12.844;2023-02-15T00:37:29;2.95;;;2.00;;
22186;SDS011;11259;52.146;12.844;2023-02-15T00:39:55;2.88;;;1.67;;
22186;SDS011;11259;52.146;12.844;2023-02-15T00:42:20;4.88;;;1.80;;
22186;SDS011;11259;52.146;12.844;2023-02-15T00:44:45;4.72;;;2.45;;
22186;SDS011;11259;52.146;12.844;2023-02-15T00:47:11;2.72;;;2.25;;
22186;SDS011;11259;52.146;12.844;2023-02-15T00:49:36;6.28;;;2.65;;
22186;SDS011;11259;52.146;12.844;2023-02-15T00:52:03;4.43;;;3.00;;
22186;SDS011;11259;52.146;12.844;2023-02-15T00:54:28;3.58;;;2.47;;
22186;SDS011;11259;52.146;12.844;2023-02-15T00:56:54;2.80;;;1.92;;
22186;SDS011;11259;52.146;12.844;2023-02-15T00:59:19;1.92;;;1.65;;
22186;SDS011;11259;52.146;12.844;2023-02-15T01:01:44;2.83;;;2.17;;
22186;SDS011;11259;52.146;12.844;2023-02-15T01:04:10;2.70;;;2.05;;
22186;SDS011;11259;52.146;12.844;2023-02-15T01:06:35;2.47;;;1.90;;
22186;SDS011;11259;52.146;12.844;2023-02-15T01:09:02;3.58;;;1.88;;
22186;SDS011;11259;52.146;12.844;2023-02-15T01:11:27;3.67;;;1.80;;
22186;SDS011;11259;52.146;12.844;2023-02-15T01:13:53;3.17;;;2.20;;
22186;SDS011;11259;52.146;12.844;2023-02-15T01:16:20;3.05;;;2.75;;
22186;SDS011;11259;52.146;12.844;2023-02-15T01:18:47;2.00;;;1.80;;
22186;SDS011;11259;52.146;12.844;2023-02-15T01:21:13;2.30;;;2.13;;
22186;SDS011;11259;52.146;12.844;2023-02-15T01:23:40;2.55;;;1.70;;
22186;SDS011;11259;52.146;12.844;2023-02-15T01:26:07;4.43;;;1.83;;
22186;SDS011;11259;52.146;12.844;2023-02-15T01:28:32;4.53;;;2.35;;
22186;SDS011;11259;52.146;12.844;2023-02-15T01:30:58;5.82;;;2.30;;
22186;SDS011;11259;52.146;12.844;2023-02-15T01:33:23;3.75;;;2.65;;
22186;SDS011;11259;52.146;12.844;2023-02-15T01:35:48;2.60;;;2.08;;
22186;SDS011;11259;52.146;12.844;2023-02-15T01:38:14;4.45;;;2.05;;
22186;SDS011;11259;52.146;12.844;2023-02-15T01:40:39;2.95;;;1.95;;
22186;SDS011;11259;52.146;12.844;2023-02-15T01:43:08;2.70;;;2.22;;
22186;SDS011;11259;52.146;12.844;2023-02-15T01:45:35;3.58;;;2.40;;
22186;SDS011;11259;52.146;12.844;2023-02-15T01:48:02;2.47;;;2.17;;
22186;SDS011;11259;52.146;12.844;2023-02-15T01:50:29;2.92;;;2.53;;
22186;SDS011;11259;52.146;12.844;2023-02-15T01:52:58;4.47;;;3.00;;
22186;SDS011;11259;52.146;12.844;2023-02-15T01:55:29;6.47;;;3.15;;
22186;SDS011;11259;52.146;12.844;2023-02-15T01:57:57;3.00;;;2.50;;
22186;SDS011;11259;52.146;12.844;2023-02-15T02:00:25;3.25;;;2.45;;
22186;SDS011;11259;52.146;12.844;2023-02-15T02:02:51;3.65;;;2.70;;
22186;SDS011;11259;52.146;12.844;2023-02-15T02:05:18;3.55;;;2.17;;
22186;SDS011;11259;52.146;12.844;2023-02-15T02:07:44;3.40;;;2.95;;
22186;SDS011;11259;52.146;12.844;2023-02-15T02:10:12;4.35;;;2.97;;
22186;SDS011;11259;52.146;12.844;2023-02-15T02:12:39;7.53;;;3.45;;
22186;SDS011;11259;52.146;12.844;2023-02-15T02:15:06;5.82;;;1.98;;
22186;SDS011;11259;52.146;12.844;2023-02-15T02:17:35;3.90;;;2.90;;
22186;SDS011;11259;52.146;12.844;2023-02-15T02:20:14;4.25;;;2.58;;
22186;SDS011;11259;52.146;12.844;2023-02-15T02:25:51;5.28;;;3.05;;
22186;SDS011;11259;52.146;12.844;2023-02-15T02:28:33;5.10;;;2.88;;
22186;SDS011;11259;52.146;12.844;2023-02-15T02:31:29;4.32;;;3.63;;
22186;SDS011;11259;52.146;12.844;2023-02-15T02:34:10;8.48;;;3.42;;
22186;SDS011;11259;52.146;12.844;2023-02-15T02:36:39;4.88;;;3.58;;
22186;SDS011;11259;52.146;12.844;2023-02-15T02:39:09;3.25;;;2.50;;
22186;SDS011;11259;52.146;12.844;2023-02-15T02:41:42;5.15;;;3.45;;
22186;SDS011;11259;52.146;12.844;2023-02-15T02:44:10;6.05;;;3.65;;
22186;SDS011;11259;52.146;12.844;2023-02-15T02:46:40;5.38;;;2.65;;
22186;SDS011;11259;52.146;12.844;2023-02-15T02:49:12;8.30;;;3.40;;
22186;SDS011;11259;52.146;12.844;2023-02-15T02:51:38;5.13;;;3.53;;
22186;SDS011;11259;52.146;12.844;2023-02-15T02:54:04;8.27;;;3.28;;
22186;SDS011;11259;52.146;12.844;2023-02-15T02:56:31;4.45;;;3.42;;
22186;SDS011;11259;52.146;12.844;2023-02-15T02:59:01;8.35;;;3.83;;
22186;SDS011;11259;52.146;12.844;2023-02-15T03:01:29;3.30;;;2.80;;
22186;SDS011;11259;52.146;12.844;2023-02-15T03:03:57;5.38;;;3.63;;
22186;SDS011;11259;52.146;12.844;2023-02-15T03:06:26;4.53;;;3.10;;
22186;SDS011;11259;52.146;12.844;2023-02-15T03:08:58;5.75;;;3.22;;
22186;SDS011;11259;52.146;12.844;2023-02-15T03:11:27;6.10;;;3.42;;
22186;SDS011;11259;52.146;12.844;2023-02-15T03:13:52;5.30;;;3.75;;
22186;SDS011;11259;52.146;12.844;2023-02-15T03:16:18;5.53;;;3.88;;
22186;SDS011;11259;52.146;12.844;2023-02-15T03:18:45;2.92;;;2.03;;
22186;SDS011;11259;52.146;12.844;2023-02-15T03:21:12;5.00;;;3.25;;
22186;SDS011;11259;52.146;12.844;2023-02-15T03:23:39;7.50;;;2.92;;
22186;SDS011;11259;52.146;12.844;2023-02-15T03:26:05;4.38;;;2.47;;
22186;SDS011;11259;52.146;12.844;2023-02-15T03:28:31;7.60;;;3.55;;
22186;SDS011;11259;52.146;12.844;2023-02-15T03:31:01;6.82;;;3.17;;
22186;SDS011;11259;52.146;12.844;2023-02-15T03:33:28;8.85;;;4.05;;
22186;SDS011;11259;52.146;12.844;2023-02-15T03:35:54;3.60;;;2.95;;
22186;SDS011;11259;52.146;12.844;2023-02-15T03:38:25;3.55;;;3.10;;
22186;SDS011;11259;52.146;12.844;2023-02-15T03:40:56;5.35;;;2.92;;
22186;SDS011;11259;52.146;12.844;2023-02-15T03:43:34;6.85;;;3.28;;
22186;SDS011;11259;52.146;12.844;2023-02-15T03:46:05;7.68;;;4.78;;
22186;SDS011;11259;52.146;12.844;2023-02-15T03:48:34;6.95;;;4.15;;
22186;SDS011;11259;52.146;12.844;2023-02-15T03:51:02;3.50;;;2.88;;
22186;SDS011;11259;52.146;12.844;2023-02-15T03:53:30;3.35;;;2.60;;
22186;SDS011;11259;52.146;12.844;2023-02-15T03:55:57;7.70;;;3.78;;
22186;SDS011;11259;52.146;12.844;2023-02-15T03:58:22;6.47;;;3.50;;
22186;SDS011;11259;52.146;12.844;2023-02-15T04:00:49;5.32;;;3.10;;
22186;SDS011;11259;52.146;12.844;2023-02-15T04:03:20;5.28;;;2.55;;
22186;SDS011;11259;52.146;12.844;2023-02-15T04:05:48;5.68;;;3.72;;
22186;SDS011;11259;52.146;12.844;2023-02-15T04:08:13;3.28;;;2.17;;
22186;SDS011;11259;52.146;12.844;2023-02-15T04:10:39;6.25;;;3.08;;
22186;SDS011;11259;52.146;12.844;2023-02-15T04:13:06;3.95;;;3.10;;
22186;SDS011;11259;52.146;12.844;2023-02-15T04:15:31;7.57;;;3.05;;
22186;SDS011;11259;52.146;12.844;2023-02-15T04:17:56;6.38;;;2.58;;
22186;SDS011;11259;52.146;12.844;2023-02-15T04:20:22;5.68;;;2.80;;
22186;SDS011;11259;52.146;12.844;2023-02-15T04:22:47;5.18;;;2.70;;
22186;SDS011;11259;52.146;12.844;2023-02-15T04:25:12;2.58;;;2.05;;
22186;SDS011;11259;52.146;12.844;2023-02-15T04:27:38;4.28;;;2.65;;
22186;SDS011;11259;52.146;12.844;2023-02-15T04:30:06;4.20;;;2.60;;
22186;SDS011;11259;52.146;12.844;2023-02-15T04:32:33;3.65;;;2.53;;
22186;SDS011;11259;52.146;12.844;2023-02-15T04:34:58;3.40;;;2.25;;
22186;SDS011;11259;52.146;12.844;2023-02-15T04:37:24;3.05;;;2.45;;
22186;SDS011;11259;52.146;12.844;2023-02-15T04:39:49;2.67;;;2.38;;
22186;SDS011;11259;52.146;12.844;2023-02-15T04:42:14;3.47;;;2.58;;
22186;SDS011;11259;52.146;12.844;2023-02-15T04:44:40;5.30;;;2.35;;
22186;SDS011;11259;52.146;12.844;2023-02-15T04:47:06;4.97;;;2.28;;
22186;SDS011;11259;52.146;12.844;2023-02-15T04:49:32;5.55;;;3.17;;
22186;SDS011;11259;52.146;12.844;2023-02-15T04:51:57;6.15;;;2.35;;
22186;SDS011;11259;52.146;12.844;2023-02-15T04:54:22;4.00;;;2.83;;
22186;SDS011;11259;52.146;12.844;2023-02-15T04:56:48;6.88;;;3.17;;
22186;SDS011;11259;52.146;12.844;2023-02-15T04:59:13;10.98;;;3.67;;
22186;SDS011;11259;52.146;12.844;2023-02-15T05:01:38;4.28;;;2.70;;
22186;SDS011;11259;52.146;12.844;2023-02-15T05:04:05;6.93;;;3.80;;
22186;SDS011;11259;52.146;12.844;2023-02-15T05:06:30;2.30;;;2.13;;
22186;SDS011;11259;52.146;12.844;2023-02-15T05:08:56;4.63;;;2.13;;
22186;SDS011;11259;52.146;12.844;2023-02-15T05:11:21;3.75;;;3.38;;
22186;SDS011;11259;52.146;12.844;2023-02-15T05:13:46;4.30;;;2.97;;
22186;SDS011;11259;52.146;12.844;2023-02-15T05:16:12;4.20;;;2.75;;
22186;SDS011;11259;52.146;12.844;2023-02-15T05:18:37;5.13;;;2.20;;
22186;SDS011;11259;52.146;12.844;2023-02-15T05:21:04;4.75;;;3.03;;
22186;SDS011;11259;52.146;12.844;2023-02-15T05:23:29;6.95;;;2.83;;
22186;SDS011;11259;52.146;12.844;2023-02-15T05:25:55;4.68;;;2.80;;
22186;SDS011;11259;52.146;12.844;2023-02-15T05:28:20;4.88;;;2.95;;
22186;SDS011;11259;52.146;12.844;2023-02-15T05:30:46;5.00;;;3.83;;
22186;SDS011;11259;52.146;12.844;2023-02-15T05:33:12;5.47;;;3.30;;
22186;SDS011;11259;52.146;12.844;2023-02-15T05:35:37;4.80;;;3.28;;
22186;SDS011;11259;52.146;12.844;2023-02-15T05:38:04;5.93;;;3.17;;
22186;SDS011;11259;52.146;12.844;2023-02-15T05:40:29;3.03;;;2.45;;
22186;SDS011;11259;52.146;12.844;2023-02-15T05:42:55;3.97;;;2.92;;
22186;SDS011;11259;52.146;12.844;2023-02-15T05:45:20;3.97;;;2.50;;
22186;SDS011;11259;52.146;12.844;2023-02-15T05:47:46;5.00;;;2.97;;
22186;SDS011;11259;52.146;12.844;2023-02-15T05:50:11;3.67;;;2.67;;
22186;SDS011;11259;52.146;12.844;2023-02-15T05:52:37;4.45;;;2.80;;
22186;SDS011;11259;52.146;12.844;2023-02-15T05:55:04;7.28;;;2.95;;
22186;SDS011;11259;52.146;12.844;2023-02-15T05:57:30;7.47;;;3.72;;
22186;SDS011;11259;52.146;12.844;2023-02-15T05:59:55;6.75;;;2.58;;
22186;SDS011;11259;52.146;12.844;2023-02-15T06:02:20;7.82;;;3.47;;
22186;SDS011;11259;52.146;12.844;2023-02-15T06:04:46;4.30;;;3.55;;
22186;SDS011;11259;52.146;12.844;2023-02-15T06:07:11;4.63;;;3.92;;
22186;SDS011;11259;52.146;12.844;2023-02-15T06:09:36;3.50;;;3.20;;
22186;SDS011;11259;52.146;12.844;2023-02-15T06:12:03;4.90;;;3.78;;
22186;SDS011;11259;52.146;12.844;2023-02-15T06:14:29;5.82;;;3.55;;
22186;SDS011;11259;52.146;12.844;2023-02-15T06:16:54;3.83;;;2.85;;
22186;SDS011;11259;52.146;12.844;2023-02-15T06:19:19;7.78;;;4.35;;
22186;SDS011;11259;52.146;12.844;2023-02-15T06:21:45;6.03;;;4.20;;
22186;SDS011;11259;52.146;12.844;2023-02-15T06:24:10;5.85;;;3.55;;
22186;SDS011;11259;52.146;12.844;2023-02-15T06:26:35;2.50;;;2.30;;
22186;SDS011;11259;52.146;12.844;2023-02-15T06:29:02;3.78;;;2.75;;
22186;SDS011;11259;52.146;12.844;2023-02-15T06:31:27;5.82;;;3.75;;
22186;SDS011;11259;52.146;12.844;2023-02-15T06:33:53;8.65;;;4.85;;
22186;SDS011;11259;52.146;12.844;2023-02-15T06:36:19;4.38;;;2.92;;
22186;SDS011;11259;52.146;12.844;2023-02-15T06:38:44;7.00;;;4.72;;
22186;SDS011;11259;52.146;12.844;2023-02-15T06:41:09;10.68;;;4.53;;
22186;SDS011;11259;52.146;12.844;2023-02-15T06:43:35;11.05;;;4.20;;
22186;SDS011;11259;52.146;12.844;2023-02-15T06:46:01;8.55;;;5.03;;
22186;SDS011;11259;52.146;12.844;2023-02-15T06:48:27;8.85;;;4.40;;
22186;SDS011;11259;52.146;12.844;2023-02-15T06:50:52;7.18;;;4.25;;
22186;SDS011;11259;52.146;12.844;2023-02-15T06:53:17;6.13;;;4.65;;
22186;SDS011;11259;52.146;12.844;2023-02-15T06:55:43;6.47;;;4.95;;
22186;SDS011;11259;52.146;12.844;2023-02-15T06:58:08;10.13;;;4.75;;
22186;SDS011;11259;52.146;12.844;2023-02-15T07:00:33;8.32;;;4.35;;
22186;SDS011;11259;52.146;12.844;2023-02-15T07:03:00;8.82;;;4.40;;
22186;SDS011;11259;52.146;12.844;2023-02-15T07:05:25;8.63;;;4.60;;
22186;SDS011;11259;52.146;12.844;2023-02-15T07:07:51;16.98;;;4.55;;
22186;SDS011;11259;52.146;12.844;2023-02-15T07:10:16;6.13;;;4.32;;
22186;SDS011;11259;52.146;12.844;2023-02-15T07:12:42;7.93;;;3.90;;
22186;SDS011;11259;52.146;12.844;2023-02-15T07:15:07;6.88;;;3.13;;
22186;SDS011;11259;52.146;12.844;2023-02-15T07:17:33;5.50;;;3.97;;
22186;SDS011;11259;52.146;12.844;2023-02-15T07:20:00;6.75;;;4.25;;
22186;SDS011;11259;52.146;12.844;2023-02-15T07:22:25;9.88;;;4.22;;
22186;SDS011;11259;52.146;12.844;2023-02-15T07:24:50;6.78;;;3.60;;
22186;SDS011;11259;52.146;12.844;2023-02-15T07:27:16;5.15;;;2.70;;
22186;SDS011;11259;52.146;12.844;2023-02-15T07:29:41;8.48;;;4.07;;
22186;SDS011;11259;52.146;12.844;2023-02-15T07:32:06;6.60;;;3.47;;
22186;SDS011;11259;52.146;12.844;2023-02-15T07:34:32;5.53;;;3.60;;
22186;SDS011;11259;52.146;12.844;2023-02-15T07:36:58;5.03;;;3.28;;
22186;SDS011;11259;52.146;12.844;2023-02-15T07:39:24;8.02;;;4.38;;
22186;SDS011;11259;52.146;12.844;2023-02-15T07:41:49;6.13;;;3.72;;
22186;SDS011;11259;52.146;12.844;2023-02-15T07:44:14;8.05;;;4.32;;
22186;SDS011;11259;52.146;12.844;2023-02-15T07:46:40;11.52;;;4.00;;
22186;SDS011;11259;52.146;12.844;2023-02-15T07:49:05;12.75;;;6.97;;
22186;SDS011;11259;52.146;12.844;2023-02-15T07:51:31;14.18;;;5.85;;
22186;SDS011;11259;52.146;12.844;2023-02-15T07:53:57;9.65;;;6.07;;
22186;SDS011;11259;52.146;12.844;2023-02-15T07:56:23;10.23;;;5.35;;
22186;SDS011;11259;52.146;12.844;2023-02-15T07:58:48;9.13;;;6.03;;
22186;SDS011;11259;52.146;12.844;2023-02-15T08:01:13;20.45;;;10.57;;
22186;SDS011;11259;52.146;12.844;2023-02-15T08:03:39;12.63;;;7.38;;
22186;SDS011;11259;52.146;12.844;2023-02-15T08:06:05;16.60;;;6.95;;
22186;SDS011;11259;52.146;12.844;2023-02-15T08:08:33;16.05;;;8.25;;
22186;SDS011;11259;52.146;12.844;2023-02-15T08:11:01;13.57;;;7.60;;
22186;SDS011;11259;52.146;12.844;2023-02-15T08:13:27;13.40;;;7.63;;
22186;SDS011;11259;52.146;12.844;2023-02-15T08:15:52;8.57;;;5.78;;
22186;SDS011;11259;52.146;12.844;2023-02-15T08:18:17;8.40;;;4.93;;
22186;SDS011;11259;52.146;12.844;2023-02-15T08:20:48;9.38;;;5.78;;
22186;SDS011;11259;52.146;12.844;2023-02-15T08:23:13;9.07;;;5.88;;
22186;SDS011;11259;52.146;12.844;2023-02-15T08:25:39;13.65;;;6.43;;
22186;SDS011;11259;52.146;12.844;2023-02-15T08:28:05;9.00;;;5.38;;
22186;SDS011;11259;52.146;12.844;2023-02-15T08:30:31;16.20;;;7.25;;
22186;SDS011;11259;52.146;12.844;2023-02-15T08:32:56;13.52;;;7.43;;
22186;SDS011;11259;52.146;12.844;2023-02-15T08:35:21;13.38;;;7.65;;
22186;SDS011;11259;52.146;12.844;2023-02-15T08:37:47;14.68;;;8.27;;
22186;SDS011;11259;52.146;12.844;2023-02-15T08:40:12;9.18;;;5.63;;
22186;SDS011;11259;52.146;12.844;2023-02-15T08:42:37;14.68;;;6.97;;
22186;SDS011;11259;52.146;12.844;2023-02-15T08:45:04;11.77;;;6.72;;
22186;SDS011;11259;52.146;12.844;2023-02-15T08:47:30;12.82;;;5.72;;
22186;SDS011;11259;52.146;12.844;2023-02-15T08:49:55;11.88;;;5.47;;
22186;SDS011;11259;52.146;12.844;2023-02-15T08:52:21;9.65;;;4.80;;
22186;SDS011;11259;52.146;12.844;2023-02-15T08:54:46;11.45;;;5.28;;
22186;SDS011;11259;52.146;12.844;2023-02-15T08:57:11;10.75;;;5.95;;
22186;SDS011;11259;52.146;12.844;2023-02-15T08:59:37;10.50;;;5.97;;
22186;SDS011;11259;52.146;12.844;2023-02-15T09:02:03;8.05;;;4.65;;
22186;SDS011;11259;52.146;12.844;2023-02-15T09:04:29;9.82;;;5.43;;
22186;SDS011;11259;52.146;12.844;2023-02-15T09:06:54;8.73;;;3.78;;
22186;SDS011;11259;52.146;12.844;2023-02-15T09:09:19;5.25;;;4.38;;
22186;SDS011;11259;52.146;12.844;2023-02-15T09:11:46;8.25;;;5.55;;
22186;SDS011;11259;52.146;12.844;2023-02-15T09:14:13;10.45;;;5.22;;
22186;SDS011;11259;52.146;12.844;2023-02-15T09:16:39;10.27;;;6.93;;
22186;SDS011;11259;52.146;12.844;2023-02-15T09:19:07;9.95;;;5.38;;
22186;SDS011;11259;52.146;12.844;2023-02-15T09:21:33;6.25;;;3.88;;
22186;SDS011;11259;52.146;12.844;2023-02-15T09:24:00;9.65;;;5.53;;
22186;SDS011;11259;52.146;12.844;2023-02-15T09:26:27;11.38;;;5.28;;
22186;SDS011;11259;52.146;12.844;2023-02-15T09:28:54;10.40;;;5.25;;
22186;SDS011;11259;52.146;12.844;2023-02-15T09:31:22;7.32;;;4.65;;
22186;SDS011;11259;52.146;12.844;2023-02-15T09:33:48;22.90;;;7.78;;
22186;SDS011;11259;52.146;12.844;2023-02-15T09:36:16;5.35;;;4.55;;
22186;SDS011;11259;52.146;12.844;2023-02-15T09:38:43;13.38;;;7.32;;
22186;SDS011;11259;52.146;12.844;2023-02-15T09:41:13;11.93;;;6.07;;
22186;SDS011;11259;52.146;12.844;2023-02-15T09:43:46;10.50;;;6.05;;
22186;SDS011;11259;52.146;12.844;2023-02-15T09:46:25;13.02;;;6.13;;
22186;SDS011;11259;52.146;12.844;2023-02-15T09:48:58;9.48;;;5.75;;
22186;SDS011;11259;52.146;12.844;2023-02-15T09:51:33;13.15;;;8.02;;
22186;SDS011;11259;52.146;12.844;2023-02-15T09:54:09;9.10;;;6.40;;
22186;SDS011;11259;52.146;12.844;2023-02-15T09:56:42;14.18;;;6.18;;
22186;SDS011;11259;52.146;12.844;2023-02-15T09:59:12;9.13;;;5.43;;
22186;SDS011;11259;52.146;12.844;2023-02-15T10:01:43;9.32;;;5.50;;
22186;SDS011;11259;52.146;12.844;2023-02-15T10:04:21;9.05;;;4.93;;
22186;SDS011;11259;52.146;12.844;2023-02-15T10:06:58;7.60;;;4.63;;
22186;SDS011;11259;52.146;12.844;2023-02-15T10:09:28;6.45;;;4.32;;
22186;SDS011;11259;52.146;12.844;2023-02-15T10:12:02;10.82;;;5.22;;
22186;SDS011;11259;52.146;12.844;2023-02-15T10:14:53;12.13;;;6.70;;
22186;SDS011;11259;52.146;12.844;2023-02-15T10:17:29;9.05;;;5.07;;
22186;SDS011;11259;52.146;12.844;2023-02-15T10:20:06;11.05;;;6.40;;
22186;SDS011;11259;52.146;12.844;2023-02-15T10:22:40;9.63;;;5.28;;
22186;SDS011;11259;52.146;12.844;2023-02-15T10:25:15;12.35;;;6.47;;
22186;SDS011;11259;52.146;12.844;2023-02-15T10:27:49;10.32;;;6.93;;
22186;SDS011;11259;52.146;12.844;2023-02-15T10:30:15;10.25;;;5.60;;
22186;SDS011;11259;52.146;12.844;2023-02-15T10:32:42;8.68;;;5.43;;
22186;SDS011;11259;52.146;12.844;2023-02-15T10:35:15;10.98;;;4.50;;
22186;SDS011;11259;52.146;12.844;2023-02-15T10:37:49;8.77;;;6.50;;
22186;SDS011;11259;52.146;12.844;2023-02-15T10:40:21;10.90;;;5.55;;
22186;SDS011;11259;52.146;12.844;2023-02-15T10:42:54;9.20;;;5.53;;
22186;SDS011;11259;52.146;12.844;2023-02-15T10:45:30;8.75;;;5.88;;
22186;SDS011;11259;52.146;12.844;2023-02-15T10:48:02;9.00;;;5.13;;
22186;SDS011;11259;52.146;12.844;2023-02-15T10:50:45;8.50;;;4.70;;
22186;SDS011;11259;52.146;12.844;2023-02-15T10:56:08;12.52;;;5.13;;
22186;SDS011;11259;52.146;12.844;2023-02-15T10:58:40;9.57;;;5.07;;
22186;SDS011;11259;52.146;12.844;2023-02-15T11:01:13;6.40;;;4.43;;
22186;SDS011;11259;52.146;12.844;2023-02-15T11:03:49;10.57;;;4.85;;
22186;SDS011;11259;52.146;12.844;2023-02-15T11:06:23;7.78;;;4.78;;
22186;SDS011;11259;52.146;12.844;2023-02-15T11:08:54;9.05;;;5.15;;
22186;SDS011;11259;52.146;12.844;2023-02-15T11:11:22;10.95;;;5.35;;
22186;SDS011;11259;52.146;12.844;2023-02-15T11:13:50;10.95;;;6.30;;
22186;SDS011;11259;52.146;12.844;2023-02-15T11:16:18;12.85;;;6.10;;
22186;SDS011;11259;52.146;12.844;2023-02-15T11:18:48;12.10;;;5.40;;
22186;SDS011;11259;52.146;12.844;2023-02-15T11:21:17;7.55;;;4.80;;
22186;SDS011;11259;52.146;12.844;2023-02-15T11:23:46;6.35;;;4.03;;
22186;SDS011;11259;52.146;12.844;2023-02-15T11:26:14;11.98;;;6.70;;
22186;SDS011;11259;52.146;12.844;2023-02-15T11:28:43;9.43;;;4.25;;
22186;SDS011;11259;52.146;12.844;2023-02-15T11:31:12;14.15;;;5.55;;
22186;SDS011;11259;52.146;12.844;2023-02-15T11:33:40;23.77;;;10.82;;
22186;SDS011;11259;52.146;12.844;2023-02-15T11:36:08;54.55;;;21.17;;
22186;SDS011;11259;52.146;12.844;2023-02-15T11:38:34;50.50;;;18.55;;
22186;SDS011;11259;52.146;12.844;2023-02-15T11:41:02;38.75;;;16.60;;
22186;SDS011;11259;52.146;12.844;2023-02-15T11:43:32;47.20;;;17.40;;
22186;SDS011;11259;52.146;12.844;2023-02-15T11:46:00;36.90;;;13.57;;
22186;SDS011;11259;52.146;12.844;2023-02-15T11:48:26;34.38;;;12.85;;
22186;SDS011;11259;52.146;12.844;2023-02-15T11:50:54;33.47;;;12.90;;
22186;SDS011;11259;52.146;12.844;2023-02-15T11:53:20;28.35;;;11.93;;
22186;SDS011;11259;52.146;12.844;2023-02-15T11:55:47;20.95;;;9.13;;
22186;SDS011;11259;52.146;12.844;2023-02-15T11:58:16;22.73;;;9.30;;
22186;SDS011;11259;52.146;12.844;2023-02-15T12:00:50;16.42;;;8.18;;
22186;SDS011;11259;52.146;12.844;2023-02-15T12:03:18;23.70;;;10.32;;
22186;SDS011;11259;52.146;12.844;2023-02-15T12:05:47;15.50;;;7.53;;
22186;SDS011;11259;52.146;12.844;2023-02-15T12:08:16;14.05;;;6.55;;
22186;SDS011;11259;52.146;12.844;2023-02-15T12:10:44;13.38;;;7.43;;
22186;SDS011;11259;52.146;12.844;2023-02-15T12:13:17;12.38;;;5.97;;
22186;SDS011;11259;52.146;12.844;2023-02-15T12:15:44;24.17;;;10.15;;
22186;SDS011;11259;52.146;12.844;2023-02-15T12:18:18;15.15;;;7.30;;
22186;SDS011;11259;52.146;12.844;2023-02-15T12:20:45;19.25;;;7.82;;
22186;SDS011;11259;52.146;12.844;2023-02-15T12:23:11;17.20;;;8.77;;
22186;SDS011;11259;52.146;12.844;2023-02-15T12:25:39;24.67;;;10.55;;
22186;SDS011;11259;52.146;12.844;2023-02-15T12:28:15;12.73;;;7.65;;
22186;SDS011;11259;52.146;12.844;2023-02-15T12:30:48;12.15;;;6.60;;
22186;SDS011;11259;52.146;12.844;2023-02-15T12:33:13;8.82;;;6.07;;
22186;SDS011;11259;52.146;12.844;2023-02-15T12:35:43;9.63;;;4.63;;
22186;SDS011;11259;52.146;12.844;2023-02-15T12:38:19;10.48;;;6.85;;
22186;SDS011;11259;52.146;12.844;2023-02-15T12:40:55;7.47;;;5.28;;
22186;SDS011;11259;52.146;12.844;2023-02-15T12:43:24;6.55;;;4.40;;
22186;SDS011;11259;52.146;12.844;2023-02-15T12:45:50;7.28;;;4.70;;
22186;SDS011;11259;52.146;12.844;2023-02-15T12:48:16;7.45;;;4.53;;
22186;SDS011;11259;52.146;12.844;2023-02-15T12:50:44;8.32;;;4.93;;
22186;SDS011;11259;52.146;12.844;2023-02-15T12:53:13;7.38;;;4.72;;
22186;SDS011;11259;52.146;12.844;2023-02-15T12:55:49;7.05;;;4.35;;
22186;SDS011;11259;52.146;12.844;2023-02-15T12:58:16;5.93;;;3.95;;
22186;SDS011;11259;52.146;12.844;2023-02-15T13:00:42;5.55;;;3.53;;
22186;SDS011;11259;52.146;12.844;2023-02-15T13:03:15;6.13;;;3.80;;
22186;SDS011;11259;52.146;12.844;2023-02-15T13:05:43;5.43;;;4.30;;
22186;SDS011;11259;52.146;12.844;2023-02-15T13:08:10;7.47;;;4.20;;
22186;SDS011;11259;52.146;12.844;2023-02-15T13:10:39;6.53;;;3.58;;
22186;SDS011;11259;52.146;12.844;2023-02-15T13:13:09;6.30;;;4.05;;
22186;SDS011;11259;52.146;12.844;2023-02-15T13:15:36;6.75;;;4.13;;
22186;SDS011;11259;52.146;12.844;2023-02-15T13:18:02;6.57;;;4.32;;
22186;SDS011;11259;52.146;12.844;2023-02-15T13:20:29;5.35;;;3.80;;
22186;SDS011;11259;52.146;12.844;2023-02-15T13:22:58;4.78;;;2.80;;
22186;SDS011;11259;52.146;12.844;2023-02-15T13:25:25;5.32;;;3.60;;
22186;SDS011;11259;52.146;12.844;2023-02-15T13:27:54;6.97;;;3.83;;
22186;SDS011;11259;52.146;12.844;2023-02-15T13:30:25;6.45;;;3.95;;
22186;SDS011;11259;52.146;12.844;2023-02-15T13:32:52;6.03;;;3.65;;
22186;SDS011;11259;52.146;12.844;2023-02-15T13:35:20;4.35;;;3.22;;
22186;SDS011;11259;52.146;12.844;2023-02-15T13:37:53;4.03;;;3.63;;
22186;SDS011;11259;52.146;12.844;2023-02-15T13:40:37;4.82;;;3.28;;
22186;SDS011;11259;52.146;12.844;2023-02-15T13:43:12;7.32;;;2.90;;
22186;SDS011;11259;52.146;12.844;2023-02-15T13:45:53;4.28;;;3.22;;
22186;SDS011;11259;52.146;12.844;2023-02-15T13:48:32;6.00;;;3.35;;
22186;SDS011;11259;52.146;12.844;2023-02-15T13:51:07;3.38;;;2.33;;
22186;SDS011;11259;52.146;12.844;2023-02-15T13:53:48;5.95;;;2.88;;
22186;SDS011;11259;52.146;12.844;2023-02-15T13:56:43;3.08;;;2.63;;
22186;SDS011;11259;52.146;12.844;2023-02-15T13:59:24;6.63;;;3.75;;
22186;SDS011;11259;52.146;12.844;2023-02-15T14:01:56;8.38;;;5.40;;
22186;SDS011;11259;52.146;12.844;2023-02-15T14:04:42;7.13;;;4.70;;
22186;SDS011;11259;52.146;12.844;2023-02-15T14:07:26;11.82;;;5.95;;
22186;SDS011;11259;52.146;12.844;2023-02-15T14:10:14;7.68;;;5.18;;
22186;SDS011;11259;52.146;12.844;2023-02-15T14:12:52;7.80;;;4.03;;
22186;SDS011;11259;52.146;12.844;2023-02-15T14:15:28;7.53;;;4.07;;
22186;SDS011;11259;52.146;12.844;2023-02-15T14:18:00;6.47;;;3.83;;
22186;SDS011;11259;52.146;12.844;2023-02-15T14:20:39;5.35;;;3.42;;
22186;SDS011;11259;52.146;12.844;2023-02-15T14:23:11;6.65;;;3.85;;
22186;SDS011;11259;52.146;12.844;2023-02-15T14:25:44;7.93;;;5.03;;
22186;SDS011;11259;52.146;12.844;2023-02-15T14:28:15;22.02;;;10.60;;
22186;SDS011;11259;52.146;12.844;2023-02-15T14:30:44;17.70;;;8.68;;
22186;SDS011;11259;52.146;12.844;2023-02-15T14:33:18;11.20;;;7.18;;
22186;SDS011;11259;52.146;12.844;2023-02-15T14:35:53;15.43;;;7.45;;
22186;SDS011;11259;52.146;12.844;2023-02-15T14:38:21;14.65;;;6.72;;
22186;SDS011;11259;52.146;12.844;2023-02-15T14:40:59;9.52;;;5.80;;
22186;SDS011;11259;52.146;12.844;2023-02-15T14:43:30;6.82;;;4.35;;